Time;durP1;ratioP1;P1;durP2;ratioP2;P2;SDS_P1;SDS_P2;PMS_P1;PMS_P2;Temp;Humidity;BMP_temperature;BMP_pressure;BME280_temperature;BME280_humidity;BME280_pressure;Samples;Min_cycle;Max_cycle;Signal;HPM_P1;HPM_P2
2021/11/27 00:08:48;;;;;;;10.93;5.73;;;;;;;5.60;95.85;99799.31;31455450;28;20490;-76
2021/11/27 00:23:51;;;;;;;13.17;7.10;;;;;;;5.80;97.29;99782.28;31463642;28;20421;-75
2021/11/27 00:38:54;;;;;;;14.23;6.57;;;;;;;5.92;97.93;99748.75;31433021;28;20055;-76
2021/11/27 00:53:57;;;;;;;11.53;5.87;;;;;;;6.01;98.85;99707.91;31449634;28;20045;-76
2021/11/27 01:09:05;;;;;;;11.63;5.97;;;;;;;6.13;99.40;99692.03;31446749;28;20049;-75
2021/11/27 01:24:10;;;;;;;14.13;5.67;;;;;;;6.29;99.69;99651.06;31451379;28;20060;-76
2021/11/27 01:39:13;;;;;;;15.50;6.10;;;;;;;6.60;99.86;99621.47;31439166;28;20055;-76
2021/11/27 01:54:15;;;;;;;11.03;5.37;;;;;;;6.85;100.00;99616.53;31442910;28;20048;-75
2021/11/27 02:09:25;;;;;;;8.90;4.83;;;;;;;6.97;100.00;99613.31;31439397;28;20076;-76
2021/11/27 02:24:27;;;;;;;9.23;4.60;;;;;;;7.02;100.00;99642.56;31432702;28;20115;-77
2021/11/27 02:39:31;;;;;;;9.70;4.53;;;;;;;7.09;100.00;99610.06;31417584;28;20057;-77
2021/11/27 02:54:34;;;;;;;7.97;4.53;;;;;;;7.04;100.00;99591.63;31421810;28;20057;-79
2021/11/27 03:09:36;;;;;;;8.73;4.43;;;;;;;6.95;100.00;99588.66;31438274;28;20064;-81
2021/11/27 03:24:39;;;;;;;8.80;4.23;;;;;;;6.99;100.00;99557.00;31435554;28;20194;-82
2021/11/27 03:39:42;;;;;;;7.73;4.47;;;;;;;7.04;100.00;99521.47;31452700;28;20045;-83
2021/11/27 03:54:46;;;;;;;13.90;4.80;;;;;;;7.07;100.00;99509.09;31506938;28;20502;-83
2021/11/27 04:09:48;;;;;;;12.97;4.20;;;;;;;7.07;100.00;99498.28;31480114;28;20521;-86
2021/11/27 04:24:50;;;;;;;12.43;4.70;;;;;;;7.05;100.00;99479.81;31437023;28;20459;-84
2021/11/27 04:39:52;;;;;;;7.20;3.93;;;;;;;7.02;100.00;99483.31;31463302;28;20044;-83
2021/11/27 04:54:54;;;;;;;5.73;3.13;;;;;;;6.98;100.00;99474.50;31517813;28;20048;-77
2021/11/27 05:09:58;;;;;;;6.80;3.37;;;;;;;6.94;100.00;99479.19;31453486;28;20084;-80
2021/11/27 05:25:01;;;;;;;6.60;4.03;;;;;;;6.95;100.00;99459.13;31421966;28;20061;-76
2021/11/27 05:40:05;;;;;;;7.70;3.27;;;;;;;6.96;100.00;99444.47;31479476;28;20059;-77
2021/11/27 05:55:07;;;;;;;4.20;2.30;;;;;;;6.92;100.00;99481.53;31417145;28;20056;-75
2021/11/27 06:10:10;;;;;;;7.23;3.10;;;;;;;6.88;100.00;99443.03;31437869;28;20088;-76
2021/11/27 06:25:14;;;;;;;5.53;2.33;;;;;;;6.84;100.00;99431.56;31460894;28;20106;-79
2021/11/27 06:40:17;;;;;;;2.93;1.97;;;;;;;6.87;100.00;99406.44;31448521;28;20041;-78
2021/11/27 06:55:19;;;;;;;5.97;3.50;;;;;;;6.86;100.00;99407.63;31468581;28;20139;-78
2021/11/27 07:10:21;;;;;;;4.53;3.27;;;;;;;6.85;100.00;99422.28;31435368;28;20536;-78
2021/11/27 07:25:27;;;;;;;4.07;2.87;;;;;;;6.82;100.00;99388.03;31429740;28;20060;-76
2021/11/27 07:40:29;;;;;;;3.27;2.47;;;;;;;6.88;100.00;99409.91;31448477;28;20136;-79
2021/11/27 07:55:32;;;;;;;8.97;3.40;;;;;;;7.08;100.00;99389.94;31457636;28;20048;-77
2021/11/27 08:10:34;;;;;;;3.07;2.47;;;;;;;7.22;100.00;99375.41;31412198;28;20049;-79
2021/11/27 08:25:36;;;;;;;11.80;4.43;;;;;;;7.37;100.00;99348.91;31455761;28;20057;-76
2021/11/27 08:40:38;;;;;;;9.47;4.50;;;;;;;7.60;100.00;99319.13;31408625;28;20045;-78
2021/11/27 08:55:40;;;;;;;6.77;4.23;;;;;;;7.81;100.00;99297.09;31439535;28;20143;-79
2021/11/27 09:10:43;;;;;;;10.10;4.20;;;;;;;8.03;100.00;99288.53;31469205;28;20498;-79
2021/11/27 09:25:45;;;;;;;9.07;5.60;;;;;;;8.27;100.00;99276.38;31471415;28;20147;-80
2021/11/27 09:40:51;;;;;;;10.03;4.70;;;;;;;8.55;100.00;99261.44;31477805;28;20135;-77
2021/11/27 09:55:54;;;;;;;19.67;5.87;;;;;;;8.76;100.00;99249.31;31436757;28;20056;-80
2021/11/27 10:10:56;;;;;;;7.87;4.30;;;;;;;8.92;100.00;99252.00;31473834;28;20049;-77
2021/11/27 10:25:58;;;;;;;8.77;3.77;;;;;;;9.12;100.00;99254.56;31457743;28;20057;-76
2021/11/27 10:41:00;;;;;;;16.77;5.03;;;;;;;9.31;100.00;99250.16;31432679;28;20067;-75
2021/11/27 10:56:11;;;;;;;17.17;4.17;;;;;;;9.55;100.00;99254.13;31464171;28;20434;-75
2021/11/27 11:11:19;;;;;;;10.20;5.40;;;;;;;9.77;100.00;99246.13;31413721;28;20745;-76
2021/11/27 11:26:23;;;;;;;12.70;5.27;;;;;;;10.01;100.00;99251.97;31436419;28;20131;-77
2021/11/27 11:41:29;;;;;;;8.97;5.93;;;;;;;10.22;100.00;99268.38;31441157;28;20057;-74
2021/11/27 11:56:36;;;;;;;9.03;5.40;;;;;;;10.42;100.00;99275.50;31470819;28;20536;-78
2021/11/27 12:28:07;;;;;;;11.27;6.47;;;;;;;10.73;100.00;99289.22;31425565;28;20075;-76
2021/11/27 12:43:11;;;;;;;26.40;10.80;;;;;;;10.90;100.00;99293.28;31426373;28;20055;-80
2021/11/27 12:58:28;;;;;;;24.70;12.67;;;;;;;10.88;100.00;99290.25;31472871;28;20079;-78
2021/11/27 13:13:38;;;;;;;33.67;11.63;;;;;;;10.82;100.00;99321.91;31464996;28;20090;-78
2021/11/27 13:28:50;;;;;;;40.97;20.77;;;;;;;10.67;100.00;99304.53;31437445;28;20048;-78
2021/11/27 13:43:52;;;;;;;26.07;12.13;;;;;;;10.55;100.00;99301.44;31441606;28;20424;-77
2021/11/27 13:58:54;;;;;;;26.30;11.90;;;;;;;10.41;100.00;99310.00;31429908;28;20055;-78
2021/11/27 14:14:03;;;;;;;39.63;12.27;;;;;;;10.21;100.00;99304.81;31432469;28;20053;-78
2021/11/27 14:29:14;;;;;;;39.93;20.47;;;;;;;10.02;100.00;99324.00;31424858;28;20057;-76
2021/11/27 14:44:16;;;;;;;23.03;11.97;;;;;;;10.07;100.00;99337.00;31444036;28;20436;-74
2021/11/27 14:59:19;;;;;;;25.20;11.80;;;;;;;10.20;100.00;99356.78;31439900;28;20071;-74
2021/11/27 15:14:21;;;;;;;30.17;14.23;;;;;;;10.15;100.00;99346.47;31417736;28;20052;-73
2021/11/27 15:29:24;;;;;;;28.50;11.77;;;;;;;10.06;100.00;99346.34;31394787;28;20066;-75
2021/11/27 15:44:27;;;;;;;31.77;15.77;;;;;;;9.92;100.00;99361.06;31465781;28;20078;-75
2021/11/27 15:59:29;;;;;;;29.80;12.57;;;;;;;9.77;100.00;99376.97;31448335;28;20061;-73
2021/11/27 16:14:31;;;;;;;25.67;12.37;;;;;;;9.71;100.00;99377.91;31443019;28;20056;-74
2021/11/27 16:29:33;;;;;;;27.40;11.77;;;;;;;9.65;100.00;99388.56;31437211;28;20060;-75
2021/11/27 16:44:35;;;;;;;34.10;10.50;;;;;;;9.62;100.00;99389.41;31438057;28;20098;-74
2021/11/27 16:59:37;;;;;;;29.00;13.93;;;;;;;9.47;100.00;99397.13;31437648;28;20056;-74
2021/11/27 17:14:39;;;;;;;29.50;12.00;;;;;;;9.38;100.00;99428.75;31434953;28;20056;-78
2021/11/27 17:29:42;;;;;;;53.03;23.57;;;;;;;9.31;100.00;99412.66;31509585;28;20051;-75
2021/11/27 17:44:44;;;;;;;47.23;21.47;;;;;;;9.14;100.00;99420.81;31448841;28;20059;-80
2021/11/27 17:59:46;;;;;;;33.87;13.30;;;;;;;9.22;100.00;99427.56;31476256;28;20056;-80
2021/11/27 18:14:49;;;;;;;23.07;11.83;;;;;;;9.46;100.00;99420.00;31440078;28;20501;-80
2021/11/27 18:29:51;;;;;;;27.07;13.80;;;;;;;9.53;100.00;99440.72;31475596;28;20049;-80
2021/11/27 18:44:53;;;;;;;28.77;12.87;;;;;;;9.52;100.00;99445.38;31470124;28;20836;-80
2021/11/27 19:00:00;;;;;;;35.00;11.73;;;;;;;9.57;100.00;99441.41;31451138;28;20465;-79
2021/11/27 19:15:04;;;;;;;43.97;21.30;;;;;;;9.50;100.00;99447.75;31455293;28;20052;-78
2021/11/27 19:30:08;;;;;;;24.93;10.97;;;;;;;9.44;100.00;99470.41;31471484;28;20064;-79
2021/11/27 19:45:13;;;;;;;20.00;10.90;;;;;;;9.40;100.00;99475.91;31423172;28;20059;-79
2021/11/27 20:00:15;;;;;;;24.47;11.47;;;;;;;9.39;100.00;99487.91;31472660;28;20047;-79
2021/11/27 20:15:18;;;;;;;27.13;11.07;;;;;;;9.40;100.00;99499.50;31433023;28;20055;-79
2021/11/27 20:30:21;;;;;;;25.43;11.13;;;;;;;9.42;100.00;99511.44;31458142;28;20106;-80
2021/11/27 20:45:23;;;;;;;24.03;10.10;;;;;;;9.40;100.00;99513.81;31457782;28;21277;-76
2021/11/27 21:00:25;;;;;;;30.77;10.73;;;;;;;9.31;100.00;99510.94;31468680;28;20101;-75
2021/11/27 21:15:28;;;;;;;42.00;12.60;;;;;;;9.21;100.00;99518.13;31453962;28;20060;-76
2021/11/27 21:30:30;;;;;;;24.43;11.03;;;;;;;9.16;100.00;99513.22;31453629;28;20059;-77
2021/11/27 21:45:42;;;;;;;26.37;10.00;;;;;;;9.06;100.00;99511.53;31476939;28;20102;-76
2021/11/27 22:00:45;;;;;;;23.70;11.10;;;;;;;9.09;100.00;99507.97;31462160;28;20044;-78
2021/11/27 22:15:48;;;;;;;26.23;10.77;;;;;;;9.18;100.00;99524.41;31437454;28;20522;-77
2021/11/27 22:30:51;;;;;;;25.07;10.10;;;;;;;9.26;100.00;99518.81;31420459;28;20076;-77
2021/11/27 22:45:53;;;;;;;20.73;10.27;;;;;;;9.28;100.00;99511.78;31396303;28;20057;-75
2021/11/27 23:01:04;;;;;;;19.90;9.30;;;;;;;9.26;100.00;99513.38;31433703;28;20040;-75
2021/11/27 23:16:08;;;;;;;21.97;9.57;;;;;;;9.25;100.00;99512.63;31425154;28;20113;-76
2021/11/27 23:31:11;;;;;;;19.57;8.83;;;;;;;9.23;100.00;99523.13;31438967;28;20059;-75
2021/11/27 23:46:13;;;;;;;16.90;8.17;;;;;;;9.19;100.00;99544.88;31447143;28;20068;-76
